Time;durP1;ratioP1;P1;durP2;ratioP2;P2;SDS_P1;SDS_P2;PMS_P1;PMS_P2;Temp;Humidity;BMP_temperature;BMP_pressure;BME280_temperature;BME280_humidity;BME280_pressure;Samples;Min_cycle;Max_cycle;Signal;HPM_P1;HPM_P2
2022/07/13 00:00:29;;;;;;;2.55;1.98;;;14.60;99.90;;;;;;4994066;28;20772;-63
2022/07/13 00:02:55;;;;;;;;;;;14.60;99.90;;;;;;4993552;28;20560;-63
2022/07/13 00:05:23;;;;;;;2.35;2.10;;;14.60;99.90;;;;;;4989916;28;20212;-63
2022/07/13 00:07:51;;;;;;;2.25;1.77;;;14.60;99.90;;;;;;5005968;28;20040;-63
2022/07/13 00:10:18;;;;;;;2.92;2.22;;;14.50;99.90;;;;;;5014120;28;20044;-63
2022/07/13 00:12:45;;;;;;;2.47;2.00;;;14.50;99.90;;;;;;5008511;28;20864;-63
2022/07/13 00:15:12;;;;;;;2.20;2.00;;;14.50;99.90;;;;;;4992175;28;20040;-63
2022/07/13 00:17:39;;;;;;;;;;;14.50;99.90;;;;;;4990879;28;20687;-63
2022/07/13 00:20:06;;;;;;;3.72;1.70;;;14.40;99.90;;;;;;4992215;28;19921;-63
2022/07/13 00:22:34;;;;;;;2.75;2.08;;;14.40;99.90;;;;;;4994666;28;20840;-63
2022/07/13 00:25:01;;;;;;;3.00;2.30;;;14.40;99.90;;;;;;4988305;28;20155;-63
2022/07/13 00:27:28;;;;;;;4.97;2.17;;;14.30;99.90;;;;;;4993198;28;20313;-63
2022/07/13 00:29:55;;;;;;;1.40;1.30;;;14.30;99.90;;;;;;5017716;28;20048;-63
2022/07/13 00:32:22;;;;;;;4.70;1.83;;;14.30;99.90;;;;;;4993992;28;20099;-63
2022/07/13 00:34:49;;;;;;;2.30;1.63;;;14.20;99.90;;;;;;4985604;28;20375;-63
2022/07/13 00:37:16;;;;;;;2.97;1.73;;;14.20;99.90;;;;;;4992913;28;20150;-63
2022/07/13 00:39:43;;;;;;;1.92;1.70;;;14.20;99.90;;;;;;4990580;28;20824;-63
2022/07/13 00:42:10;;;;;;;2.40;2.17;;;14.20;99.90;;;;;;4991757;28;20041;-63
2022/07/13 00:44:37;;;;;;;;;;;14.20;99.90;;;;;;4995418;28;20591;-63
2022/07/13 00:47:05;;;;;;;2.10;1.70;;;14.20;99.90;;;;;;5033780;28;20089;-63
2022/07/13 00:49:32;;;;;;;1.95;1.60;;;14.20;99.90;;;;;;4993560;28;20554;-63
2022/07/13 00:51:59;;;;;;;4.03;1.77;;;14.20;99.90;;;;;;5006771;28;20120;-63
2022/07/13 00:54:29;;;;;;;4.25;2.00;;;14.20;99.90;;;;;;4991896;28;20422;-63
2022/07/13 00:56:57;;;;;;;4.93;2.00;;;14.10;99.90;;;;;;4973841;28;20211;-63
2022/07/13 00:59:25;;;;;;;2.72;2.22;;;14.10;99.90;;;;;;4986562;28;20626;-63
2022/07/13 01:01:53;;;;;;;2.72;1.90;;;14.10;99.90;;;;;;4987822;28;20074;-63
2022/07/13 01:04:23;;;;;;;2.15;1.88;;;14.00;99.90;;;;;;4988364;28;20037;-63
2022/07/13 01:06:54;;;;;;;2.22;2.00;;;14.00;99.90;;;;;;4988648;28;20029;-63
2022/07/13 01:09:25;;;;;;;2.72;1.83;;;14.00;99.90;;;;;;4997228;28;20028;-63
2022/07/13 01:11:52;;;;;;;2.00;1.80;;;13.90;99.90;;;;;;5025964;28;20075;-64
2022/07/13 01:14:20;;;;;;;2.05;1.77;;;13.90;99.90;;;;;;4994419;28;20111;-62
2022/07/13 01:16:48;;;;;;;1.83;1.58;;;13.90;99.90;;;;;;5028657;28;20454;-62
2022/07/13 01:19:15;;;;;;;2.50;1.60;;;13.90;99.90;;;;;;4992572;28;20069;-63
2022/07/13 01:21:46;;;;;;;9.60;1.70;;;13.80;99.90;;;;;;4989341;28;20685;-63
2022/07/13 01:24:14;;;;;;;2.25;1.95;;;13.80;99.90;;;;;;5023851;28;20766;-63
2022/07/13 01:26:41;;;;;;;2.10;1.80;;;13.80;99.90;;;;;;5027631;28;20110;-63
2022/07/13 01:29:09;;;;;;;2.08;1.73;;;13.80;99.90;;;;;;5014134;28;20041;-63
2022/07/13 01:31:37;;;;;;;2.97;1.50;;;13.70;99.90;;;;;;5023570;28;20347;-64
2022/07/13 01:34:06;;;;;;;1.90;1.80;;;13.70;99.90;;;;;;5011226;28;20915;-63
2022/07/13 01:36:37;;;;;;;2.08;1.90;;;13.70;99.90;;;;;;5024793;28;20045;-62
2022/07/13 01:39:05;;;;;;;2.60;2.30;;;13.70;99.90;;;;;;5020048;28;20439;-63
2022/07/13 01:41:33;;;;;;;2.22;2.03;;;13.60;99.90;;;;;;5009854;28;20044;-64
2022/07/13 01:44:01;;;;;;;1.90;1.80;;;13.60;99.90;;;;;;5009438;28;20049;-63
2022/07/13 01:46:29;;;;;;;2.22;2.03;;;13.60;99.90;;;;;;5019891;28;20400;-63
2022/07/13 01:48:57;;;;;;;5.03;1.90;;;13.60;99.90;;;;;;5018989;28;20190;-63
2022/07/13 01:51:24;;;;;;;4.43;2.10;;;13.60;99.90;;;;;;5003761;28;20040;-63
2022/07/13 01:53:51;;;;;;;2.60;2.40;;;13.50;99.90;;;;;;5003885;28;20047;-63
2022/07/13 01:56:20;;;;;;;2.78;1.85;;;13.50;99.90;;;;;;5027084;28;20051;-63
2022/07/13 01:58:47;;;;;;;2.28;2.08;;;13.50;99.90;;;;;;5025195;28;20049;-64
2022/07/13 02:01:15;;;;;;;2.20;2.00;;;13.50;99.90;;;;;;5008087;28;20606;-64
2022/07/13 02:03:43;;;;;;;2.17;1.98;;;13.40;99.90;;;;;;5010145;28;20560;-62
2022/07/13 02:06:11;;;;;;;2.88;1.67;;;13.40;99.90;;;;;;5039768;28;20155;-63
2022/07/13 02:08:38;;;;;;;5.57;1.73;;;13.40;99.90;;;;;;5010751;28;20466;-63
2022/07/13 02:11:07;;;;;;;6.72;1.77;;;13.30;99.90;;;;;;5016527;28;20059;-63
2022/07/13 02:13:34;;;;;;;5.82;2.15;;;13.30;99.90;;;;;;5003004;28;20063;-64
2022/07/13 02:16:01;;;;;;;;;;;13.30;99.90;;;;;;5021982;28;20509;-63
2022/07/13 02:18:28;;;;;;;2.00;1.83;;;13.30;99.90;;;;;;5004168;28;20489;-63
2022/07/13 02:20:55;;;;;;;2.65;1.75;;;13.30;99.90;;;;;;5011698;28;20094;-63
2022/07/13 02:23:22;;;;;;;2.40;2.15;;;13.30;99.90;;;;;;4998171;28;20278;-63
2022/07/13 02:25:49;;;;;;;6.38;2.35;;;13.30;99.90;;;;;;5009521;28;20106;-63
2022/07/13 02:28:16;;;;;;;;;;;13.30;99.90;;;;;;5018392;28;20037;-64
2022/07/13 02:30:44;;;;;;;4.10;2.13;;;13.30;99.90;;;;;;5011549;28;19931;-63
2022/07/13 02:33:12;;;;;;;3.90;1.77;;;13.20;99.90;;;;;;5028113;28;20835;-63
2022/07/13 02:35:41;;;;;;;3.88;2.13;;;13.20;99.90;;;;;;5027000;28;20670;-63
2022/07/13 02:38:08;;;;;;;3.30;2.10;;;13.10;99.90;;;;;;5012889;28;20185;-63
2022/07/13 02:40:35;;;;;;;4.18;1.92;;;13.10;99.90;;;;;;5016335;28;20044;-63
2022/07/13 02:43:02;;;;;;;3.15;1.90;;;13.10;99.90;;;;;;5067122;28;20076;-62
2022/07/13 02:45:29;;;;;;;3.28;1.88;;;13.00;99.90;;;;;;5013567;28;20720;-63
2022/07/13 02:47:56;;;;;;;3.22;1.77;;;13.00;99.90;;;;;;5015809;28;20029;-63
2022/07/13 02:50:23;;;;;;;1.63;1.52;;;13.00;99.90;;;;;;5012148;28;20044;-64
2022/07/13 02:52:54;;;;;;;4.38;1.95;;;13.00;99.90;;;;;;5012563;28;20147;-58
2022/07/13 02:55:21;;;;;;;1.60;1.50;;;13.00;99.90;;;;;;5010361;28;20040;-58
2022/07/13 02:57:49;;;;;;;2.55;1.80;;;13.00;99.90;;;;;;5030261;28;20160;-57
2022/07/13 03:00:16;;;;;;;2.42;1.70;;;12.90;99.90;;;;;;5025848;28;20047;-58
2022/07/13 03:02:44;;;;;;;2.90;2.03;;;12.90;99.90;;;;;;5008153;28;20131;-58
2022/07/13 03:05:13;;;;;;;2.47;1.90;;;12.90;99.90;;;;;;5028840;28;20087;-59
2022/07/13 03:07:41;;;;;;;2.63;2.42;;;12.80;99.90;;;;;;4991692;28;20041;-59
2022/07/13 03:10:08;;;;;;;5.47;2.13;;;12.80;99.90;;;;;;5004036;28;20052;-59
2022/07/13 03:12:37;;;;;;;5.00;1.70;;;12.80;99.90;;;;;;5017058;28;20040;-59
2022/07/13 03:15:04;;;;;;;;;;;12.80;99.90;;;;;;5029779;28;20348;-59
2022/07/13 03:17:31;;;;;;;2.67;2.20;;;12.80;99.90;;;;;;4991756;28;19920;-59
2022/07/13 03:20:03;;;;;;;1.60;1.50;;;12.80;99.90;;;;;;4995362;28;20167;-59
2022/07/13 03:22:31;;;;;;;2.33;2.10;;;12.70;99.90;;;;;;4994090;28;20424;-58
2022/07/13 03:24:58;;;;;;;2.95;2.28;;;12.70;99.90;;;;;;5007148;28;20075;-59
2022/07/13 03:27:25;;;;;;;4.20;2.03;;;12.70;99.90;;;;;;5013136;28;20170;-58
2022/07/13 03:29:52;;;;;;;1.65;1.50;;;12.70;99.90;;;;;;5012613;28;20327;-59
2022/07/13 03:32:19;;;;;;;2.80;1.65;;;12.70;99.90;;;;;;5031739;28;20036;-58
2022/07/13 03:34:46;;;;;;;1.83;1.70;;;12.80;99.90;;;;;;5011914;28;20212;-60
2022/07/13 03:37:18;;;;;;;2.20;1.88;;;12.80;99.90;;;;;;5040649;28;20052;-59
2022/07/13 03:39:45;;;;;;;2.33;1.95;;;12.80;99.90;;;;;;5026356;28;20297;-60
2022/07/13 03:42:13;;;;;;;1.88;1.77;;;12.80;99.90;;;;;;5013459;28;20201;-59
2022/07/13 03:44:40;;;;;;;5.15;1.45;;;12.80;99.90;;;;;;5025008;28;20109;-59
2022/07/13 03:47:07;;;;;;;2.13;1.92;;;12.80;99.90;;;;;;5035990;28;20403;-59
2022/07/13 03:49:34;;;;;;;3.05;1.95;;;12.70;99.90;;;;;;5013340;28;20048;-60
2022/07/13 03:52:02;;;;;;;4.55;1.90;;;12.80;99.90;;;;;;5053154;28;20036;-59
2022/07/13 03:54:31;;;;;;;2.88;1.85;;;12.80;99.90;;;;;;5006082;28;20480;-60
2022/07/13 03:56:58;;;;;;;2.08;1.40;;;12.80;99.90;;;;;;5008336;28;20834;-59
2022/07/13 03:59:25;;;;;;;1.90;1.40;;;12.80;99.90;;;;;;5027608;28;20502;-62
2022/07/13 04:01:52;;;;;;;6.95;1.80;;;12.80;99.90;;;;;;5019734;28;20037;-61
2022/07/13 04:04:20;;;;;;;4.10;1.63;;;12.80;99.90;;;;;;4991373;28;20033;-61
2022/07/13 04:06:48;;;;;;;1.65;1.55;;;12.90;99.90;;;;;;5018199;28;20551;-60
2022/07/13 04:09:16;;;;;;;1.98;1.63;;;12.90;99.90;;;;;;5025680;28;20735;-61
2022/07/13 04:11:43;;;;;;;2.85;1.30;;;13.00;99.90;;;;;;5021116;28;20033;-60
2022/07/13 04:14:11;;;;;;;2.28;1.58;;;13.10;99.90;;;;;;5010470;28;20201;-63
2022/07/13 04:16:39;;;;;;;2.80;1.90;;;13.10;99.90;;;;;;5011808;28;20049;-59
2022/07/13 04:19:08;;;;;;;4.50;2.05;;;13.20;99.90;;;;;;5015134;28;20037;-60
2022/07/13 04:21:37;;;;;;;2.13;1.90;;;13.30;99.90;;;;;;5005771;28;20114;-59
2022/07/13 04:24:05;;;;;;;3.78;1.48;;;13.30;99.90;;;;;;5006804;28;20316;-61
2022/07/13 04:26:33;;;;;;;1.48;1.38;;;13.40;99.90;;;;;;5005791;28;20151;-60
2022/07/13 04:29:02;;;;;;;8.23;1.70;;;13.40;99.90;;;;;;5022336;28;20125;-60
2022/07/13 04:31:30;;;;;;;3.35;1.85;;;13.50;99.90;;;;;;5022682;28;20039;-59
2022/07/13 04:33:58;;;;;;;2.13;1.52;;;13.50;99.90;;;;;;5024069;28;20151;-61
2022/07/13 04:36:26;;;;;;;3.25;1.20;;;13.60;99.90;;;;;;5021910;28;20551;-52
2022/07/13 04:38:54;;;;;;;2.30;1.50;;;13.60;99.90;;;;;;5013047;28;20806;-53
2022/07/13 04:41:21;;;;;;;1.60;1.50;;;13.70;99.90;;;;;;5023357;28;20248;-53
2022/07/13 04:43:50;;;;;;;2.85;1.90;;;13.70;99.90;;;;;;5026959;28;20047;-52
2022/07/13 04:46:18;;;;;;;6.10;1.73;;;13.80;99.90;;;;;;4994691;28;20052;-54
2022/07/13 04:48:48;;;;;;;4.20;1.65;;;13.80;99.90;;;;;;5055345;28;20882;-54
2022/07/13 04:51:15;;;;;;;1.85;1.60;;;13.90;99.90;;;;;;5028503;28;20048;-52
2022/07/13 04:53:45;;;;;;;7.38;1.38;;;14.00;99.90;;;;;;5013968;28;20939;-50
2022/07/13 04:56:13;;;;;;;5.68;1.67;;;14.00;99.90;;;;;;5032873;28;20102;-53
2022/07/13 04:58:41;;;;;;;2.17;1.38;;;14.00;99.90;;;;;;5026115;28;20051;-54
2022/07/13 05:01:08;;;;;;;6.93;1.75;;;14.10;99.90;;;;;;5007460;28;20206;-56
2022/07/13 05:04:02;;;;;;;2.38;1.17;;;14.10;99.90;;;;;;5027788;28;20755;-53
2022/07/13 05:06:30;;;;;;;1.45;1.30;;;14.20;99.90;;;;;;4999822;28;20044;-54
2022/07/13 05:09:00;;;;;;;1.50;1.40;;;14.20;99.90;;;;;;5008911;28;20105;-54
2022/07/13 05:11:27;;;;;;;2.63;1.40;;;14.20;99.90;;;;;;5010197;28;20039;-55
2022/07/13 05:13:54;;;;;;;3.47;1.88;;;14.20;99.90;;;;;;5007592;28;20036;-58
2022/07/13 05:16:21;;;;;;;1.70;1.60;;;14.30;99.90;;;;;;4987504;28;20048;-55
2022/07/13 05:18:49;;;;;;;3.00;1.20;;;14.40;99.90;;;;;;5012196;28;20040;-55
2022/07/13 05:21:22;;;;;;;1.67;1.58;;;14.50;99.90;;;;;;5035967;28;20747;-50
2022/07/13 05:23:49;;;;;;;1.42;1.30;;;14.60;99.90;;;;;;5003755;28;20388;-54
2022/07/13 05:26:17;;;;;;;2.47;1.33;;;14.60;99.90;;;;;;4990806;28;20588;-58
2022/07/13 05:28:44;;;;;;;2.40;1.17;;;14.70;99.90;;;;;;4986768;28;20057;-57
2022/07/13 05:31:15;;;;;;;2.03;1.85;;;14.80;99.90;;;;;;5005803;28;20391;-57
2022/07/13 05:33:43;;;;;;;2.58;1.50;;;14.90;99.90;;;;;;5002273;28;20218;-57
2022/07/13 05:36:16;;;;;;;3.20;1.80;;;15.00;99.90;;;;;;5002247;28;20051;-54
2022/07/13 05:38:44;;;;;;;2.20;2.05;;;15.10;99.90;;;;;;5000992;28;20068;-55
2022/07/13 05:41:12;;;;;;;5.00;1.27;;;15.20;99.90;;;;;;5003905;28;20343;-56
2022/07/13 05:43:40;;;;;;;1.80;1.60;;;15.20;99.90;;;;;;5003620;28;20580;-58
2022/07/13 05:46:09;;;;;;;5.22;1.25;;;15.30;99.90;;;;;;5009251;28;20576;-58
2022/07/13 05:48:37;;;;;;;2.05;1.30;;;15.40;99.90;;;;;;5016625;28;20041;-57
2022/07/13 05:51:04;;;;;;;2.95;1.33;;;15.50;99.90;;;;;;4984352;28;20738;-62
2022/07/13 05:53:52;;;;;;;1.20;1.15;;;15.60;99.90;;;;;;5006688;28;20904;-58
2022/07/13 05:56:19;;;;;;;3.72;1.90;;;15.70;99.90;;;;;;4984386;28;20036;-58
2022/07/13 05:58:47;;;;;;;1.83;1.45;;;15.80;99.90;;;;;;4985267;28;20289;-59
2022/07/13 06:01:13;;;;;;;1.85;1.65;;;15.90;99.90;;;;;;4999804;28;20548;-57
2022/07/13 06:03:41;;;;;;;1.98;1.40;;;16.00;99.90;;;;;;4987022;28;20388;-56
2022/07/13 06:06:08;;;;;;;1.90;1.48;;;16.10;99.90;;;;;;5006720;28;20337;-55
2022/07/13 06:08:37;;;;;;;9.23;1.70;;;16.30;99.90;;;;;;5009538;28;20151;-57
2022/07/13 06:11:04;;;;;;;10.65;1.58;;;16.40;99.90;;;;;;4989877;28;20164;-54
2022/07/13 06:13:31;;;;;;;2.95;1.20;;;16.50;99.90;;;;;;5006896;28;20052;-53
2022/07/13 06:15:59;;;;;;;1.35;1.25;;;16.60;99.90;;;;;;5008884;28;20544;-51
2022/07/13 06:18:27;;;;;;;1.75;1.42;;;16.70;99.90;;;;;;5002855;28;20052;-58
2022/07/13 06:20:54;;;;;;;1.92;1.27;;;16.90;99.90;;;;;;5013392;28;20133;-56
2022/07/13 06:23:22;;;;;;;1.42;1.20;;;17.00;99.90;;;;;;5004394;28;20115;-57
2022/07/13 06:25:49;;;;;;;3.88;1.30;;;17.10;99.90;;;;;;5006651;28;20279;-53
2022/07/13 06:28:16;;;;;;;1.17;1.08;;;17.10;99.90;;;;;;4992102;28;20041;-53
2022/07/13 06:30:43;;;;;;;3.95;1.63;;;17.30;99.90;;;;;;4993680;28;20056;-54
2022/07/13 06:33:10;;;;;;;2.95;1.60;;;17.40;99.90;;;;;;4988879;28;20550;-49
2022/07/13 06:35:37;;;;;;;3.28;1.88;;;17.50;99.90;;;;;;4989745;28;20044;-50
2022/07/13 06:38:04;;;;;;;6.60;2.05;;;17.60;99.90;;;;;;5012695;28;20138;-52
2022/07/13 06:40:31;;;;;;;3.03;2.38;;;17.70;99.90;;;;;;5008417;28;20228;-51
2022/07/13 06:42:59;;;;;;;3.28;2.05;;;17.80;99.90;;;;;;5012102;28;20168;-51
2022/07/13 06:45:26;;;;;;;5.97;2.00;;;18.00;99.90;;;;;;5009022;28;20052;-50
2022/07/13 06:47:53;;;;;;;8.38;2.50;;;18.10;99.90;;;;;;5012066;28;20040;-58
2022/07/13 06:50:21;;;;;;;5.65;2.33;;;18.30;99.90;;;;;;5023321;28;20066;-58
2022/07/13 06:52:48;;;;;;;4.10;2.08;;;18.40;99.90;;;;;;5023472;28;20041;-57
2022/07/13 06:55:15;;;;;;;2.40;1.98;;;18.60;99.90;;;;;;5011615;28;20193;-58
2022/07/13 06:57:42;;;;;;;5.00;2.20;;;18.80;99.90;;;;;;5010204;28;20040;-58
2022/07/13 07:00:10;;;;;;;2.20;2.00;;;18.90;99.90;;;;;;5019573;28;20955;-58
2022/07/13 07:02:37;;;;;;;3.97;2.40;;;19.10;99.90;;;;;;5000732;28;20131;-58
2022/07/13 07:05:09;;;;;;;4.75;2.22;;;19.20;99.90;;;;;;5000466;28;20732;-56
2022/07/13 07:07:40;;;;;;;7.10;2.33;;;19.30;99.90;;;;;;4989288;28;20041;-58
2022/07/13 07:10:09;;;;;;;7.60;2.30;;;19.40;99.90;;;;;;4999240;28;20361;-58
2022/07/13 07:12:36;;;;;;;17.42;2.45;;;19.60;99.90;;;;;;5003762;28;20763;-57
2022/07/13 07:15:06;;;;;;;14.50;3.10;;;19.70;99.90;;;;;;5007424;28;20221;-56
2022/07/13 07:17:33;;;;;;;4.47;2.67;;;19.80;99.90;;;;;;5008629;28;20822;-56
2022/07/13 07:20:03;;;;;;;5.85;2.78;;;20.00;99.90;;;;;;5027080;28;20883;-57
2022/07/13 07:22:31;;;;;;;12.55;3.60;;;20.00;99.90;;;;;;5012843;28;20045;-58
2022/07/13 07:24:58;;;;;;;5.55;2.42;;;20.20;99.90;;;;;;5008024;28;20048;-58
2022/07/13 07:27:26;;;;;;;2.22;2.00;;;20.30;99.90;;;;;;5011433;28;20052;-57
2022/07/13 07:29:53;;;;;;;6.20;2.20;;;20.40;99.90;;;;;;4998754;28;20080;-58
2022/07/13 07:32:21;;;;;;;3.83;2.08;;;20.50;99.90;;;;;;5002969;28;20083;-57
2022/07/13 07:34:49;;;;;;;6.20;2.20;;;20.60;99.90;;;;;;4992503;28;20874;-57
2022/07/13 07:37:20;;;;;;;4.95;1.90;;;20.70;99.90;;;;;;4995678;28;20172;-56
2022/07/13 07:39:49;;;;;;;3.95;1.98;;;20.80;99.90;;;;;;5006977;28;20289;-57
2022/07/13 07:42:17;;;;;;;8.15;2.42;;;21.00;99.90;;;;;;4995729;28;20041;-57
2022/07/13 07:44:44;;;;;;;7.68;2.10;;;21.10;99.90;;;;;;5024405;28;20040;-54
2022/07/13 07:47:12;;;;;;;9.88;2.03;;;21.20;99.90;;;;;;4994786;28;20339;-58
2022/07/13 07:49:40;;;;;;;5.25;1.73;;;21.40;99.90;;;;;;4996710;28;20045;-59
2022/07/13 07:52:08;;;;;;;6.82;1.80;;;21.50;99.90;;;;;;5002692;28;20064;-57
2022/07/13 07:54:55;;;;;;;3.45;1.77;;;21.50;99.90;;;;;;4999919;28;20037;-58
2022/07/13 07:57:27;;;;;;;5.47;2.03;;;21.60;99.90;;;;;;4993108;28;20292;-57
2022/07/13 07:59:54;;;;;;;3.78;2.03;;;21.60;99.90;;;;;;5008894;28;20827;-56
2022/07/13 08:02:22;;;;;;;4.07;1.55;;;21.80;99.90;;;;;;5004820;28;20041;-54
2022/07/13 08:04:49;;;;;;;5.43;1.80;;;21.90;99.90;;;;;;5011381;28;20048;-58
2022/07/13 08:07:16;;;;;;;3.83;1.85;;;22.00;99.90;;;;;;5008923;28;20574;-58
2022/07/13 08:09:43;;;;;;;6.55;2.45;;;22.10;99.90;;;;;;5036393;28;20206;-58
2022/07/13 08:12:11;;;;;;;4.20;1.92;;;22.20;99.90;;;;;;5001143;28;20226;-58
2022/07/13 08:14:38;;;;;;;9.02;2.20;;;22.30;98.30;;;;;;5004589;28;20036;-58
2022/07/13 08:17:06;;;;;;;6.22;2.50;;;22.40;99.90;;;;;;5011515;28;20614;-58
2022/07/13 08:19:33;;;;;;;4.80;2.03;;;22.50;99.90;;;;;;5006420;28;20059;-58
2022/07/13 08:22:07;;;;;;;3.72;2.00;;;22.60;99.90;;;;;;5016019;28;20098;-53
2022/07/13 08:24:34;;;;;;;2.13;1.90;;;22.80;99.90;;;;;;4997089;28;20893;-61
2022/07/13 08:27:01;;;;;;;5.72;1.73;;;23.10;99.90;;;;;;5005468;28;20961;-61
2022/07/13 08:29:28;;;;;;;5.22;1.88;;;23.40;99.90;;;;;;4994552;28;20048;-61
2022/07/13 08:31:55;;;;;;;3.30;2.10;;;23.60;99.90;;;;;;5008526;28;20037;-61
2022/07/13 08:39:54;;;;;;;6.43;1.60;;;23.90;98.50;;;;;;4995293;28;20041;-60
2022/07/13 08:42:21;;;;;;;8.48;1.95;;;24.20;95.20;;;;;;4991472;28;20197;-60
2022/07/13 08:44:48;;;;;;;4.50;2.17;;;24.40;92.50;;;;;;4991437;28;20540;-61
2022/07/13 08:47:17;;;;;;;3.22;2.05;;;24.60;93.40;;;;;;4991885;28;20127;-61
2022/07/13 08:49:44;;;;;;;9.60;2.10;;;24.70;95.30;;;;;;4989210;28;20562;-60
2022/07/13 08:52:13;;;;;;;6.60;1.95;;;24.80;95.00;;;;;;5009121;28;20786;-61
2022/07/13 08:54:41;;;;;;;5.85;1.88;;;25.00;93.20;;;;;;4990968;28;20037;-60
2022/07/13 08:57:08;;;;;;;3.90;1.98;;;25.10;92.50;;;;;;4993667;28;20045;-61
2022/07/13 08:59:35;;;;;;;7.45;2.03;;;25.20;90.40;;;;;;4989944;28;20066;-61
2022/07/13 09:02:02;;;;;;;5.00;1.85;;;25.20;90.20;;;;;;5002943;28;20828;-61
2022/07/13 09:04:29;;;;;;;4.63;2.55;;;25.10;88.10;;;;;;4991481;28;20082;-61
2022/07/13 09:06:56;;;;;;;3.42;2.10;;;25.10;87.50;;;;;;5005191;28;20818;-61
2022/07/13 09:09:38;;;;;;;2.97;1.80;;;25.10;88.10;;;;;;5005851;28;20076;-61
2022/07/13 09:12:27;;;;;;;5.32;1.95;;;25.20;89.60;;;;;;4992871;28;20060;-61
2022/07/13 09:15:08;;;;;;;3.53;1.88;;;25.30;90.90;;;;;;4990799;28;20578;-61
2022/07/13 09:17:47;;;;;;;3.90;1.80;;;25.60;90.10;;;;;;5007623;28;20147;-61
2022/07/13 09:20:14;;;;;;;3.65;1.90;;;26.00;89.90;;;;;;5013009;28;20594;-61
2022/07/13 09:22:53;;;;;;;3.60;1.80;;;26.30;80.40;;;;;;5013389;28;20543;-62
2022/07/13 09:25:47;;;;;;;7.10;2.28;;;26.60;81.70;;;;;;4991087;28;20033;-61
2022/07/13 09:28:16;;;;;;;3.67;1.80;;;26.90;75.70;;;;;;4990338;28;20382;-61
2022/07/13 09:30:45;;;;;;;4.78;2.35;;;27.10;73.40;;;;;;4992296;28;20250;-60
2022/07/13 09:33:12;;;;;;;5.90;2.05;;;27.40;74.30;;;;;;4990578;28;20206;-60
2022/07/13 09:35:47;;;;;;;8.93;1.92;;;27.60;67.80;;;;;;4988324;28;20037;-62
2022/07/13 09:38:28;;;;;;;4.10;2.08;;;27.70;68.00;;;;;;4993007;28;20052;-62
2022/07/13 09:40:56;;;;;;;4.70;2.00;;;27.70;66.70;;;;;;4993870;28;20041;-61
2022/07/13 09:46:09;;;;;;;1.42;1.33;;;27.90;67.40;;;;;;4991281;28;20590;-61
2022/07/13 09:48:39;;;;;;;4.45;1.55;;;28.00;64.90;;;;;;4986452;28;20041;-60
2022/07/13 09:51:07;;;;;;;4.45;1.88;;;27.90;63.60;;;;;;4991924;28;20037;-61
2022/07/13 09:53:36;;;;;;;8.77;1.50;;;27.90;62.40;;;;;;4999526;28;20106;-62
2022/07/13 09:56:06;;;;;;;3.97;1.75;;;27.90;62.40;;;;;;4984782;28;20107;-62
2022/07/13 09:58:35;;;;;;;2.92;1.52;;;27.90;60.50;;;;;;4989518;28;20048;-62
2022/07/13 10:01:03;;;;;;;9.63;1.55;;;27.90;60.90;;;;;;5003033;28;20045;-62
2022/07/13 10:03:31;;;;;;;1.67;1.30;;;28.00;61.60;;;;;;4989561;28;20051;-59
2022/07/13 10:06:00;;;;;;;5.88;1.60;;;28.10;59.50;;;;;;4991917;28;20041;-60
2022/07/13 10:08:28;;;;;;;5.47;1.48;;;28.20;59.30;;;;;;5014404;28;20047;-61
2022/07/13 10:10:55;;;;;;;2.75;1.40;;;28.40;60.70;;;;;;4989740;28;20540;-60
2022/07/13 10:13:23;;;;;;;3.72;0.80;;;28.60;56.00;;;;;;5018339;28;20812;-61
2022/07/13 10:15:51;;;;;;;0.93;0.85;;;28.80;46.90;;;;;;4992005;28;20055;-61
2022/07/13 10:18:29;;;;;;;3.30;1.00;;;29.10;46.50;;;;;;5008573;28;20089;-61
2022/07/13 10:21:16;;;;;;;6.13;1.10;;;29.50;45.60;;;;;;4974150;28;20044;-60
2022/07/13 10:23:45;;;;;;;4.60;0.90;;;29.90;42.70;;;;;;5001121;28;20210;-61
2022/07/13 10:26:31;;;;;;;2.83;0.90;;;30.00;41.60;;;;;;5004835;28;20147;-60
2022/07/13 10:29:05;;;;;;;1.13;0.77;;;30.20;41.10;;;;;;4993388;28;20216;-60
2022/07/13 10:31:36;;;;;;;2.47;0.70;;;30.40;40.20;;;;;;4992603;28;20345;-61
2022/07/13 10:34:05;;;;;;;0.85;0.75;;;30.60;41.30;;;;;;5005889;28;20101;-61
2022/07/13 10:36:52;;;;;;;1.75;0.55;;;30.70;40.20;;;;;;4992372;28;20540;-62
2022/07/13 10:39:24;;;;;;;3.45;1.08;;;30.90;39.50;;;;;;5005804;28;20160;-61
2022/07/13 10:42:07;;;;;;;3.60;0.70;;;31.10;39.40;;;;;;4990768;28;20578;-61
2022/07/13 10:44:35;;;;;;;1.02;0.98;;;31.00;40.80;;;;;;4989847;28;20094;-61
2022/07/13 10:47:08;;;;;;;2.72;0.70;;;31.00;42.70;;;;;;4992131;28;20120;-61
2022/07/13 10:49:41;;;;;;;1.00;0.70;;;30.90;42.00;;;;;;4986678;28;20041;-61
2022/07/13 10:52:21;;;;;;;3.40;0.90;;;30.80;40.60;;;;;;4990408;28;20052;-61
2022/07/13 10:55:13;;;;;;;1.20;0.93;;;30.80;40.30;;;;;;4987383;28;20044;-60
2022/07/13 10:57:42;;;;;;;1.67;0.90;;;30.80;42.00;;;;;;5006966;28;20355;-65
2022/07/13 11:00:22;;;;;;;1.30;0.80;;;30.80;40.70;;;;;;4994390;28;20180;-61
2022/07/13 11:03:07;;;;;;;1.33;0.93;;;30.80;40.60;;;;;;4993979;28;20056;-60
2022/07/13 11:05:35;;;;;;;3.15;0.88;;;30.90;42.00;;;;;;4993694;28;20068;-61
2022/07/13 11:08:28;;;;;;;3.38;0.90;;;31.10;43.10;;;;;;4994501;28;20033;-61
2022/07/13 11:11:13;;;;;;;3.28;0.80;;;31.20;40.10;;;;;;5013466;28;20099;-61
2022/07/13 11:13:42;;;;;;;0.82;0.77;;;31.30;42.00;;;;;;5015023;28;20547;-61
2022/07/13 11:16:09;;;;;;;1.52;0.75;;;31.40;40.60;;;;;;5012881;28;20032;-60
2022/07/13 11:18:41;;;;;;;3.28;0.90;;;31.50;38.10;;;;;;5009121;28;20228;-61
2022/07/13 11:21:14;;;;;;;0.90;0.80;;;31.40;38.20;;;;;;5012394;28;20041;-60
2022/07/13 11:26:44;;;;;;;0.70;0.70;;;31.40;38.10;;;;;;5015889;28;20074;-60
2022/07/13 11:29:30;;;;;;;2.92;0.80;;;31.60;38.40;;;;;;5013473;28;20043;-61
2022/07/13 11:32:00;;;;;;;2.13;0.80;;;31.90;39.70;;;;;;5014674;28;20485;-60
2022/07/13 11:34:29;;;;;;;1.60;0.93;;;32.20;36.80;;;;;;5011908;28;20571;-60
2022/07/13 11:37:03;;;;;;;0.80;0.80;;;32.30;35.60;;;;;;5015144;28;20143;-61
2022/07/13 11:39:35;;;;;;;3.72;0.75;;;32.30;38.30;;;;;;5010914;28;20385;-62
2022/07/13 11:42:07;;;;;;;1.20;0.60;;;32.40;36.60;;;;;;5015551;28;20045;-61
2022/07/13 11:44:35;;;;;;;0.70;0.65;;;32.40;36.60;;;;;;5014278;28;20845;-61
2022/07/13 11:47:07;;;;;;;1.42;0.65;;;32.40;37.20;;;;;;5012576;28;20045;-61
2022/07/13 11:49:50;;;;;;;2.90;0.60;;;32.60;37.10;;;;;;5011263;28;20130;-61
2022/07/13 11:52:25;;;;;;;1.08;0.73;;;32.70;35.40;;;;;;5010831;28;20308;-61
2022/07/13 11:54:55;;;;;;;3.20;0.88;;;32.70;33.80;;;;;;5011851;28;20131;-61
2022/07/13 11:57:23;;;;;;;3.42;1.10;;;32.60;34.70;;;;;;5010761;28;20521;-61
2022/07/13 11:59:50;;;;;;;0.90;0.90;;;32.60;35.30;;;;;;5015302;28;20791;-61
2022/07/13 12:02:17;;;;;;;2.25;0.70;;;32.60;36.30;;;;;;5010017;28;20479;-61
2022/07/13 12:04:48;;;;;;;2.20;1.00;;;32.60;37.70;;;;;;5014774;28;20479;-60
2022/07/13 12:07:17;;;;;;;8.80;1.00;;;32.50;39.60;;;;;;4996621;28;20122;-61
2022/07/13 12:09:56;;;;;;;3.10;0.90;;;32.50;39.10;;;;;;5001523;28;20040;-61
2022/07/13 12:12:35;;;;;;;2.83;0.80;;;32.40;39.80;;;;;;5013355;28;20114;-60
2022/07/13 12:15:03;;;;;;;0.93;0.70;;;32.40;38.50;;;;;;4990191;28;20548;-61
2022/07/13 12:17:48;;;;;;;5.07;0.57;;;32.40;38.60;;;;;;4989272;28;20414;-61
2022/07/13 12:20:18;;;;;;;1.65;1.05;;;32.30;37.30;;;;;;5003903;28;20763;-61
2022/07/13 12:22:52;;;;;;;1.75;0.75;;;32.20;36.50;;;;;;5008468;28;20303;-61
2022/07/13 12:25:32;;;;;;;2.72;0.70;;;32.20;37.00;;;;;;4992079;28;20113;-61
2022/07/13 12:28:00;;;;;;;1.90;0.80;;;32.10;37.00;;;;;;4995015;28;20037;-61
2022/07/13 12:30:32;;;;;;;1.65;0.80;;;32.10;37.90;;;;;;4991123;28;20043;-60
2022/07/13 12:33:09;;;;;;;1.42;0.90;;;32.00;37.20;;;;;;5009025;28;20106;-61
2022/07/13 12:35:38;;;;;;;2.65;0.70;;;32.00;38.50;;;;;;4993598;28;20614;-61
2022/07/13 12:38:15;;;;;;;0.88;0.60;;;32.00;35.90;;;;;;4990563;28;20047;-60
2022/07/13 12:40:51;;;;;;;2.97;0.75;;;32.00;38.40;;;;;;4994915;28;20579;-61
2022/07/13 12:43:30;;;;;;;0.63;0.63;;;32.10;35.20;;;;;;4991306;28;20387;-60
2022/07/13 12:46:00;;;;;;;2.78;0.75;;;32.00;36.70;;;;;;4993007;28;20037;-61
2022/07/13 12:48:28;;;;;;;2.05;0.93;;;32.10;37.60;;;;;;4986920;28;20052;-60
2022/07/13 12:51:12;;;;;;;2.63;1.13;;;32.10;40.10;;;;;;4989960;28;20685;-61
2022/07/13 12:53:58;;;;;;;0.70;0.70;;;32.30;41.00;;;;;;4987452;28;20048;-61
2022/07/13 12:56:27;;;;;;;2.22;0.70;;;32.50;40.50;;;;;;4992640;28;20563;-61
2022/07/13 12:59:04;;;;;;;1.65;0.85;;;32.60;39.80;;;;;;4989770;28;20047;-61
2022/07/13 13:01:35;;;;;;;1.73;0.90;;;32.70;38.90;;;;;;5003962;28;20036;-61
2022/07/13 13:04:05;;;;;;;0.75;0.73;;;32.80;38.90;;;;;;4993919;28;20341;-60
2022/07/13 13:06:34;;;;;;;1.50;0.63;;;32.80;37.00;;;;;;4989697;28;20342;-61
2022/07/13 13:09:02;;;;;;;2.90;0.60;;;32.90;38.30;;;;;;4994150;28;20760;-60
2022/07/13 13:11:29;;;;;;;0.63;0.60;;;33.10;37.70;;;;;;4994411;28;20190;-61